Time,TemperatureF,DewpointF,PressureIn,WindDirection,WindDirectionDegrees,WindSpeedMPH,WindSpeedGustMPH,Humidity,HourlyPrecipIn,Conditions,Clouds,dailyrainin,SolarRadiationWatts/m^2,SoftwareType,DateUTC
2013-06-16 00:01:00,76.0,67.0,-100.00,NNE,13,10.0,18.0,74,0.00,,,0.00,0.000000,,2013-06-16 10:01:00,
2013-06-16 00:12:00,76.0,67.0,-100.00,NNE,13,10.0,18.0,74,0.00,,,0.00,0.000000,,2013-06-16 10:12:00,
2013-06-16 00:22:00,76.0,67.0,-100.00,NNE,13,10.0,18.0,74,0.00,,,0.00,0.000000,,2013-06-16 10:22:00,
2013-06-16 00:33:00,76.0,67.0,-100.00,NNE,13,10.0,18.0,74,0.00,,,0.00,0.000000,,2013-06-16 10:33:00,
2013-06-16 00:54:00,76.0,67.0,-100.00,NNE,12,10.0,19.0,74,0.00,,,0.00,1.000000,,2013-06-16 10:54:00,
2013-06-16 01:02:00,76.0,67.0,-100.00,NNE,12,10.0,19.0,74,0.00,,,0.00,1.000000,,2013-06-16 11:02:00,
2013-06-16 01:11:00,76.0,67.0,-100.00,NNE,12,10.0,19.0,74,0.00,,,0.00,1.000000,,2013-06-16 11:11:00,
2013-06-16 01:22:00,76.0,67.0,-100.00,NNE,12,10.0,19.0,74,0.00,,,0.00,1.000000,,2013-06-16 11:22:00,
2013-06-16 01:33:00,76.0,67.0,-100.00,NNE,12,10.0,19.0,74,0.00,,,0.00,1.000000,,2013-06-16 11:33:00,
2013-06-16 02:02:00,74.0,64.0,-100.00,NNE,12,11.0,21.0,72,0.00,,,-99.99,1.000000,,2013-06-16 12:02:00,
2013-06-16 02:11:00,74.0,64.0,-100.00,NNE,12,11.0,21.0,72,0.00,,,-99.99,1.000000,,2013-06-16 12:11:00,
2013-06-16 02:22:00,74.0,64.0,-100.00,NNE,12,11.0,21.0,72,0.00,,,-99.99,1.000000,,2013-06-16 12:22:00,
2013-06-16 02:32:00,74.0,64.0,-100.00,NNE,12,11.0,21.0,72,0.00,,,-99.99,1.000000,,2013-06-16 12:32:00,
2013-06-16 03:01:00,76.0,66.0,-100.00,NNE,12,11.0,21.0,72,0.00,,,0.00,1.000000,,2013-06-16 13:01:00,
2013-06-16 03:11:00,76.0,66.0,-100.00,NNE,12,11.0,21.0,72,0.00,,,0.00,1.000000,,2013-06-16 13:11:00,
2013-06-16 03:22:00,76.0,66.0,-100.00,NNE,12,11.0,21.0,72,0.00,,,0.00,1.000000,,2013-06-16 13:22:00,
2013-06-16 03:34:00,76.0,66.0,-100.00,NNE,12,11.0,21.0,72,0.00,,,0.00,1.000000,,2013-06-16 13:34:00,
2013-06-16 04:02:00,74.0,65.0,-100.00,NNE,13,12.0,19.0,73,0.00,,,0.00,0.000000,,2013-06-16 14:02:00,
2013-06-16 04:12:00,74.0,65.0,-100.00,NNE,13,12.0,19.0,73,0.00,,,0.00,0.000000,,2013-06-16 14:12:00,
2013-06-16 04:22:00,74.0,65.0,-100.00,NNE,13,12.0,19.0,73,0.00,,,0.00,0.000000,,2013-06-16 14:22:00,
2013-06-16 04:34:00,74.0,65.0,-100.00,NNE,13,12.0,19.0,73,0.00,,,0.00,0.000000,,2013-06-16 14:34:00,
2013-06-16 05:02:00,76.0,66.0,-100.00,North,11,11.0,17.0,72,0.00,,,0.00,1.000000,,2013-06-16 15:02:00,
2013-06-16 05:12:00,76.0,66.0,-100.00,North,11,11.0,17.0,72,0.00,,,0.00,1.000000,,2013-06-16 15:12:00,
2013-06-16 05:22:00,76.0,66.0,-100.00,North,11,11.0,17.0,72,0.00,,,0.00,1.000000,,2013-06-16 15:22:00,
2013-06-16 05:33:00,76.0,66.0,-100.00,North,11,11.0,17.0,72,0.00,,,0.00,1.000000,,2013-06-16 15:33:00,
2013-06-16 06:01:00,75.0,65.0,-100.00,NNE,12,10.0,22.0,71,0.00,,,0.00,1.000000,,2013-06-16 16:01:00,
2013-06-16 06:12:00,75.0,65.0,-100.00,NNE,12,10.0,22.0,71,0.00,,,0.00,1.000000,,2013-06-16 16:12:00,
2013-06-16 06:22:00,75.0,65.0,-100.00,NNE,12,10.0,22.0,71,0.00,,,0.00,1.000000,,2013-06-16 16:22:00,
2013-06-16 06:33:00,75.0,65.0,-100.00,NNE,12,10.0,22.0,71,0.00,,,0.00,1.000000,,2013-06-16 16:33:00,
2013-06-16 07:01:00,77.0,66.0,-100.00,NNE,12,12.0,19.0,70,0.00,,,0.00,30.000000,,2013-06-16 17:01:00,
2013-06-16 07:11:00,77.0,66.0,-100.00,NNE,12,12.0,19.0,70,0.00,,,0.00,30.000000,,2013-06-16 17:11:00,
2013-06-16 07:22:00,77.0,66.0,-100.00,NNE,12,12.0,19.0,70,0.00,,,0.00,30.000000,,2013-06-16 17:22:00,
2013-06-16 07:34:00,77.0,66.0,-100.00,NNE,12,12.0,19.0,70,0.00,,,0.00,30.000000,,2013-06-16 17:34:00,
2013-06-16 08:02:00,79.0,66.0,-100.00,NNE,12,10.0,18.0,65,0.00,,,0.00,137.000000,,2013-06-16 18:02:00,
2013-06-16 08:12:00,79.0,66.0,-100.00,NNE,12,10.0,18.0,65,0.00,,,0.00,137.000000,,2013-06-16 18:12:00,
2013-06-16 08:22:00,79.0,66.0,-100.00,NNE,12,10.0,18.0,65,0.00,,,0.00,137.000000,,2013-06-16 18:22:00,
2013-06-16 08:33:00,79.0,66.0,-100.00,NNE,12,10.0,18.0,65,0.00,,,0.00,137.000000,,2013-06-16 18:33:00,
2013-06-16 08:52:00,82.0,66.0,-100.00,NNE,12,9.0,23.0,59,0.00,,,0.00,233.000000,,2013-06-16 18:52:00,
2013-06-16 09:01:00,82.0,66.0,-100.00,NNE,12,9.0,23.0,59,0.00,,,0.00,233.000000,,2013-06-16 19:01:00,
2013-06-16 09:11:00,82.0,66.0,-100.00,NNE,12,9.0,23.0,59,0.00,,,0.00,233.000000,,2013-06-16 19:11:00,
2013-06-16 09:22:00,82.0,66.0,-100.00,NNE,12,9.0,23.0,59,0.00,,,0.00,233.000000,,2013-06-16 19:22:00,
2013-06-16 09:33:00,82.0,66.0,-100.00,NNE,12,9.0,23.0,59,0.00,,,0.00,233.000000,,2013-06-16 19:33:00,
2013-06-16 10:02:00,84.0,63.0,-100.00,NNE,15,9.0,18.0,49,0.00,,,0.00,416.000000,,2013-06-16 20:02:00,
2013-06-16 10:11:00,84.0,63.0,-100.00,NNE,15,9.0,18.0,49,0.00,,,0.00,416.000000,,2013-06-16 20:11:00,
2013-06-16 10:22:00,84.0,63.0,-100.00,NNE,15,9.0,18.0,49,0.00,,,0.00,416.000000,,2013-06-16 20:22:00,
2013-06-16 10:33:00,84.0,63.0,-100.00,NNE,15,9.0,18.0,49,0.00,,,0.00,416.000000,,2013-06-16 20:33:00,
2013-06-16 11:01:00,90.0,68.0,-100.00,North,10,8.0,24.0,48,0.00,,,0.00,656.000000,,2013-06-16 21:01:00,
2013-06-16 11:11:00,90.0,68.0,-100.00,North,10,8.0,24.0,48,0.00,,,0.00,656.000000,,2013-06-16 21:11:00,
2013-06-16 11:21:00,90.0,68.0,-100.00,North,10,8.0,24.0,48,0.00,,,0.00,656.000000,,2013-06-16 21:21:00,
2013-06-16 11:32:00,90.0,68.0,-100.00,North,10,8.0,24.0,48,0.00,,,0.00,656.000000,,2013-06-16 21:32:00,
2013-06-16 11:53:00,90.0,64.0,-100.00,NNE,22,10.0,24.0,42,0.00,,,0.00,690.000000,,2013-06-16 21:53:00,
2013-06-16 12:01:00,90.0,64.0,-100.00,NNE,22,10.0,24.0,42,0.00,,,0.00,690.000000,,2013-06-16 22:01:00,
2013-06-16 12:12:00,90.0,64.0,-100.00,NNE,22,10.0,24.0,42,0.00,,,0.00,690.000000,,2013-06-16 22:12:00,
2013-06-16 12:22:00,90.0,64.0,-100.00,NNE,22,10.0,24.0,42,0.00,,,0.00,690.000000,,2013-06-16 22:22:00,
2013-06-16 12:32:00,90.0,64.0,-100.00,NNE,22,10.0,24.0,42,0.00,,,0.00,690.000000,,2013-06-16 22:32:00,
2013-06-16 13:01:00,85.0,57.0,-100.00,NNE,23,9.0,26.0,39,0.00,,,0.00,793.000000,,2013-06-16 23:01:00,
2013-06-16 13:11:00,85.0,57.0,-100.00,NNE,23,9.0,26.0,39,0.00,,,0.00,793.000000,,2013-06-16 23:11:00,
2013-06-16 13:22:00,85.0,57.0,-100.00,NNE,23,9.0,26.0,39,0.00,,,0.00,793.000000,,2013-06-16 23:22:00,
2013-06-16 13:32:00,85.0,57.0,-100.00,NNE,23,9.0,26.0,39,0.00,,,0.00,793.000000,,2013-06-16 23:32:00,
2013-06-16 14:02:00,92.0,65.0,-100.00,NNE,18,7.0,22.0,41,0.00,,,0.00,793.000000,,2013-06-17 00:02:00,
2013-06-16 14:11:00,92.0,65.0,-100.00,NNE,18,7.0,22.0,41,0.00,,,0.00,793.000000,,2013-06-17 00:11:00,
2013-06-16 14:22:00,92.0,65.0,-100.00,NNE,18,7.0,22.0,41,0.00,,,0.00,793.000000,,2013-06-17 00:22:00,
2013-06-16 14:32:00,92.0,65.0,-100.00,NNE,18,7.0,22.0,41,0.00,,,0.00,793.000000,,2013-06-17 00:32:00,
2013-06-16 15:02:00,87.0,60.0,-100.00,NNE,32,8.0,20.0,40,0.00,,,0.00,705.000000,,2013-06-17 01:02:00,
2013-06-16 15:11:00,87.0,60.0,-100.00,NNE,32,8.0,20.0,40,0.00,,,0.00,705.000000,,2013-06-17 01:11:00,
2013-06-16 15:22:00,87.0,60.0,-100.00,NNE,32,8.0,20.0,40,0.00,,,0.00,705.000000,,2013-06-17 01:22:00,
2013-06-16 15:32:00,87.0,60.0,-100.00,NNE,32,8.0,20.0,40,0.00,,,0.00,705.000000,,2013-06-17 01:32:00,
2013-06-16 16:02:00,88.0,63.0,-100.00,NNE,25,8.0,19.0,43,0.00,,,0.00,572.000000,,2013-06-17 02:02:00,
2013-06-16 16:12:00,88.0,63.0,-100.00,NNE,25,8.0,19.0,43,0.00,,,0.00,572.000000,,2013-06-17 02:12:00,
2013-06-16 16:22:00,88.0,63.0,-100.00,NNE,25,8.0,19.0,43,0.00,,,0.00,572.000000,,2013-06-17 02:22:00,
2013-06-16 16:34:00,88.0,63.0,-100.00,NNE,25,8.0,19.0,43,0.00,,,0.00,572.000000,,2013-06-17 02:34:00,
2013-06-16 17:02:00,86.0,65.0,-100.00,NNE,17,5.0,21.0,49,0.00,,,-99.99,499.000000,,2013-06-17 03:02:00,
2013-06-16 17:12:00,86.0,65.0,-100.00,NNE,17,5.0,21.0,49,0.00,,,-99.99,499.000000,,2013-06-17 03:12:00,
2013-06-16 17:22:00,86.0,65.0,-100.00,NNE,17,5.0,21.0,49,0.00,,,-99.99,499.000000,,2013-06-17 03:22:00,
2013-06-16 17:33:00,86.0,65.0,-100.00,NNE,17,5.0,21.0,49,0.00,,,-99.99,499.000000,,2013-06-17 03:33:00,
2013-06-16 18:02:00,81.0,63.0,-100.00,North,11,6.0,18.0,55,0.00,,,0.00,247.000000,,2013-06-17 04:02:00,
2013-06-16 18:12:00,81.0,63.0,-100.00,North,11,6.0,18.0,55,0.00,,,0.00,247.000000,,2013-06-17 04:12:00,
2013-06-16 18:22:00,81.0,63.0,-100.00,North,11,6.0,18.0,55,0.00,,,0.00,247.000000,,2013-06-17 04:22:00,
2013-06-16 18:33:00,81.0,63.0,-100.00,North,11,6.0,18.0,55,0.00,,,0.00,247.000000,,2013-06-17 04:33:00,
2013-06-16 19:02:00,79.0,65.0,-100.00,North,11,9.0,15.0,63,0.00,,,0.00,65.000000,,2013-06-17 05:02:00,
2013-06-16 19:11:00,79.0,65.0,-100.00,North,11,9.0,15.0,63,0.00,,,0.00,65.000000,,2013-06-17 05:11:00,
2013-06-16 19:22:00,79.0,65.0,-100.00,North,11,9.0,15.0,63,0.00,,,0.00,65.000000,,2013-06-17 05:22:00,
2013-06-16 19:33:00,79.0,65.0,-100.00,North,11,9.0,15.0,63,0.00,,,0.00,65.000000,,2013-06-17 05:33:00,
2013-06-16 20:02:00,78.0,65.0,-100.00,North,11,9.0,20.0,65,0.00,,,0.00,11.000000,,2013-06-17 06:02:00,
2013-06-16 20:12:00,78.0,65.0,-100.00,North,11,9.0,20.0,65,0.00,,,0.00,11.000000,,2013-06-17 06:12:00,
2013-06-16 20:22:00,78.0,65.0,-100.00,North,11,9.0,20.0,65,0.00,,,0.00,11.000000,,2013-06-17 06:22:00,
2013-06-16 20:32:00,78.0,65.0,-100.00,North,11,9.0,20.0,65,0.00,,,0.00,11.000000,,2013-06-17 06:32:00,
2013-06-16 21:02:00,77.0,66.0,-100.00,North,10,10.0,20.0,68,0.00,,,0.00,1.000000,,2013-06-17 07:02:00,
2013-06-16 21:12:00,77.0,66.0,-100.00,North,10,10.0,20.0,68,0.00,,,0.00,1.000000,,2013-06-17 07:12:00,
2013-06-16 21:22:00,77.0,66.0,-100.00,North,10,10.0,20.0,68,0.00,,,0.00,1.000000,,2013-06-17 07:22:00,
2013-06-16 21:33:00,77.0,66.0,-100.00,North,10,10.0,20.0,68,0.00,,,0.00,1.000000,,2013-06-17 07:33:00,
2013-06-16 22:01:00,77.0,66.0,-100.00,NNE,14,9.0,22.0,69,0.00,,,0.00,1.000000,,2013-06-17 08:01:00,
2013-06-16 22:11:00,77.0,66.0,-100.00,NNE,14,9.0,22.0,69,0.00,,,0.00,1.000000,,2013-06-17 08:11:00,
2013-06-16 22:22:00,77.0,66.0,-100.00,NNE,14,9.0,22.0,69,0.00,,,0.00,1.000000,,2013-06-17 08:22:00,
2013-06-16 22:33:00,77.0,66.0,-100.00,NNE,14,9.0,22.0,69,0.00,,,0.00,1.000000,,2013-06-17 08:33:00,
2013-06-16 23:02:00,77.0,66.0,-100.00,North,10,7.0,15.0,69,0.00,,,0.00,1.000000,,2013-06-17 09:02:00,
2013-06-16 23:11:00,77.0,66.0,-100.00,North,10,7.0,15.0,69,0.00,,,0.00,1.000000,,2013-06-17 09:11:00,
2013-06-16 23:22:00,77.0,66.0,-100.00,North,10,7.0,15.0,69,0.00,,,0.00,1.000000,,2013-06-17 09:22:00,
2013-06-16 23:33:00,77.0,66.0,-100.00,North,10,7.0,15.0,69,0.00,,,0.00,1.000000,,2013-06-17 09:33:00,